Time;durP1;ratioP1;P1;durP2;ratioP2;P2;SDS_P1;SDS_P2;PMS_P1;PMS_P2;Temp;Humidity;BMP_temperature;BMP_pressure;BME280_temperature;BME280_humidity;BME280_pressure;Samples;Min_cycle;Max_cycle;Signal;HPM_P1;HPM_P2
2022/08/02 00:01:26;;;;;;;2.60;1.20;;;;;;;;;;105518;1303;25324;-28
2022/08/02 00:03:55;;;;;;;2.50;2.00;;;;;;;;;;105503;1296;25163;-28
2022/08/02 00:06:23;;;;;;;3.60;2.10;;;;;;;;;;105521;1303;25222;-24
2022/08/02 00:08:53;;;;;;;2.60;1.60;;;;;;;;;;104823;1303;1003739;-28
2022/08/02 00:11:22;;;;;;;3.20;2.00;;;;;;;;;;105508;1303;25190;-24
2022/08/02 00:13:51;;;;;;;2.80;2.60;;;;;;;;;;105512;1303;25223;-25
2022/08/02 00:16:20;;;;;;;4.50;2.90;;;;;;;;;;105513;1304;22546;-27
2022/08/02 00:18:49;;;;;;;4.50;2.00;;;;;;;;;;105442;1298;24390;-23
2022/08/02 00:21:18;;;;;;;2.40;2.20;;;;;;;;;;105506;1296;22516;-24
2022/08/02 00:23:46;;;;;;;1.80;1.70;;;;;;;;;;105624;1295;24753;-24
2022/08/02 00:26:15;;;;;;;2.60;1.90;;;;;;;;;;105695;1295;22521;-23
2022/08/02 00:28:44;;;;;;;3.00;2.70;;;;;;;;;;105541;1303;22494;-24
2022/08/02 00:31:13;;;;;;;2.60;1.90;;;;;;;;;;105516;1303;25156;-28
2022/08/02 00:33:42;;;;;;;2.60;2.20;;;;;;;;;;105611;1295;25240;-31
2022/08/02 00:36:11;;;;;;;3.60;2.00;;;;;;;;;;105583;1303;22529;-29
2022/08/02 00:38:39;;;;;;;4.00;2.10;;;;;;;;;;105595;1296;25206;-24
2022/08/02 00:41:10;;;;;;;2.60;2.30;;;;;;;;;;105535;1295;22514;-25
2022/08/02 00:43:39;;;;;;;3.60;2.40;;;;;;;;;;105487;1303;22524;-28
2022/08/02 00:46:08;;;;;;;2.90;2.20;;;;;;;;;;105489;1303;23920;-29
2022/08/02 00:48:37;;;;;;;3.00;1.80;;;;;;;;;;105480;1295;22619;-28
2022/08/02 00:51:06;;;;;;;3.40;2.40;;;;;;;;;;104831;1296;1003498;-25
2022/08/02 00:53:35;;;;;;;4.20;3.00;;;;;;;;;;105585;1298;25222;-24
2022/08/02 00:56:04;;;;;;;5.70;2.40;;;;;;;;;;105548;1303;25256;-24
2022/08/02 00:58:32;;;;;;;2.60;1.90;;;;;;;;;;105521;1303;25348;-30
2022/08/02 01:01:02;;;;;;;2.80;2.50;;;;;;;;;;105664;1303;24382;-26
2022/08/02 01:03:31;;;;;;;1.90;1.60;;;;;;;;;;105516;1303;25216;-30
2022/08/02 01:06:00;;;;;;;2.30;1.80;;;;;;;;;;105514;1303;25271;-29
2022/08/02 01:08:28;;;;;;;4.10;2.30;;;;;;;;;;105515;1295;22536;-29
2022/08/02 01:10:57;;;;;;;2.50;1.80;;;;;;;;;;105510;1296;22534;-25
2022/08/02 01:13:26;;;;;;;2.00;1.70;;;;;;;;;;105510;1296;22609;-28
2022/08/02 01:15:57;;;;;;;2.30;2.10;;;;;;;;;;105485;1303;25387;-28
2022/08/02 01:18:28;;;;;;;2.70;2.50;;;;;;;;;;105538;1298;22496;-28
2022/08/02 01:21:00;;;;;;;4.50;2.70;;;;;;;;;;105572;1298;24362;-24
2022/08/02 01:23:32;;;;;;;3.40;2.30;;;;;;;;;;105571;1303;22527;-28
2022/08/02 01:26:05;;;;;;;2.20;2.00;;;;;;;;;;105569;1296;22554;-26
2022/08/02 01:28:38;;;;;;;2.80;2.40;;;;;;;;;;105572;1303;25203;-25
2022/08/02 01:31:09;;;;;;;8.90;2.10;;;;;;;;;;105587;1289;25420;-28
2022/08/02 01:33:42;;;;;;;1.70;1.50;;;;;;;;;;105618;1296;25289;-28
2022/08/02 01:36:11;;;;;;;3.50;2.40;;;;;;;;;;105598;1299;22546;-28
2022/08/02 01:38:42;;;;;;;2.50;2.10;;;;;;;;;;105540;1296;25083;-25
2022/08/02 01:41:12;;;;;;;12.10;2.10;;;;;;;;;;105652;1296;22495;-28
2022/08/02 01:43:41;;;;;;;2.80;2.50;;;;;;;;;;105485;1303;22520;-24
2022/08/02 01:46:11;;;;;;;1.90;1.50;;;;;;;;;;105530;1303;25260;-22
2022/08/02 01:48:40;;;;;;;2.70;2.50;;;;;;;;;;104867;1298;1003535;-28
2022/08/02 01:51:10;;;;;;;8.40;2.60;;;;;;;;;;105557;1303;25189;-28
2022/08/02 01:53:39;;;;;;;2.10;1.80;;;;;;;;;;105459;1297;22510;-24
2022/08/02 01:56:07;;;;;;;4.20;1.90;;;;;;;;;;105591;1303;22513;-28
2022/08/02 01:58:36;;;;;;;4.10;2.30;;;;;;;;;;105639;1303;22616;-24
2022/08/02 02:01:05;;;;;;;3.30;1.90;;;;;;;;;;105506;1296;22513;-26
2022/08/02 02:03:34;;;;;;;2.50;2.10;;;;;;;;;;105544;1303;22718;-30
2022/08/02 02:06:03;;;;;;;2.80;1.90;;;;;;;;;;105660;1303;26759;-24
2022/08/02 02:08:35;;;;;;;2.90;2.20;;;;;;;;;;105574;1303;22514;-24
2022/08/02 02:11:05;;;;;;;2.90;2.60;;;;;;;;;;105638;1298;22529;-25
2022/08/02 02:13:34;;;;;;;3.50;2.90;;;;;;;;;;105555;1303;22496;-28
2022/08/02 02:16:03;;;;;;;4.40;2.30;;;;;;;;;;105651;1303;25215;-23
2022/08/02 02:18:33;;;;;;;2.50;2.20;;;;;;;;;;105506;1303;22520;-24
2022/08/02 02:21:02;;;;;;;3.40;2.90;;;;;;;;;;105479;1303;22547;-24
2022/08/02 02:23:30;;;;;;;2.10;1.80;;;;;;;;;;105459;1299;22536;-28
2022/08/02 02:26:00;;;;;;;4.00;2.30;;;;;;;;;;105586;1303;25222;-24
2022/08/02 02:28:29;;;;;;;2.40;2.00;;;;;;;;;;105509;1298;22506;-24
2022/08/02 02:31:00;;;;;;;2.80;2.50;;;;;;;;;;105493;1303;22526;-30
2022/08/02 02:33:29;;;;;;;2.30;1.90;;;;;;;;;;105484;1299;22513;-28
2022/08/02 02:35:58;;;;;;;5.80;1.80;;;;;;;;;;105530;1296;25225;-24
2022/08/02 02:38:28;;;;;;;5.20;2.70;;;;;;;;;;105625;1296;22513;-27
2022/08/02 02:40:57;;;;;;;3.60;2.10;;;;;;;;;;105581;1303;25238;-26
2022/08/02 02:43:27;;;;;;;3.50;2.20;;;;;;;;;;105514;1298;22511;-24
2022/08/02 02:45:56;;;;;;;2.90;2.60;;;;;;;;;;105559;1303;22518;-24
2022/08/02 02:48:25;;;;;;;3.30;2.20;;;;;;;;;;105567;1296;25130;-25
2022/08/02 02:50:54;;;;;;;2.90;2.60;;;;;;;;;;105583;1303;25230;-28
2022/08/02 02:53:23;;;;;;;2.20;2.00;;;;;;;;;;105593;1299;25258;-30
2022/08/02 02:55:52;;;;;;;2.30;1.80;;;;;;;;;;105615;1303;25146;-25
2022/08/02 02:58:21;;;;;;;3.00;2.60;;;;;;;;;;105584;1296;22503;-24
2022/08/02 03:03:22;;;;;;;4.20;1.50;;;;;;;;;;105518;1299;25305;-24
2022/08/02 03:05:51;;;;;;;2.60;2.40;;;;;;;;;;105554;1303;22520;-24
2022/08/02 03:08:19;;;;;;;2.60;2.10;;;;;;;;;;105676;1299;24382;-30
2022/08/02 03:10:48;;;;;;;2.90;2.20;;;;;;;;;;105545;1303;24302;-28
2022/08/02 03:13:18;;;;;;;3.30;2.50;;;;;;;;;;105533;1296;24219;-24
2022/08/02 03:15:47;;;;;;;16.60;2.60;;;;;;;;;;105529;1303;22520;-28
2022/08/02 03:18:19;;;;;;;3.60;2.40;;;;;;;;;;105581;1296;22493;-24
2022/08/02 03:20:48;;;;;;;2.50;2.20;;;;;;;;;;105579;1299;25251;-28
2022/08/02 03:23:17;;;;;;;3.20;2.80;;;;;;;;;;105485;1299;25133;-24
2022/08/02 03:25:45;;;;;;;7.00;3.20;;;;;;;;;;105598;1303;25197;-24
2022/08/02 03:28:14;;;;;;;2.70;2.30;;;;;;;;;;105613;1295;22529;-29
2022/08/02 03:30:43;;;;;;;2.80;2.50;;;;;;;;;;105632;1303;22517;-25
2022/08/02 03:33:12;;;;;;;4.90;2.70;;;;;;;;;;105536;1299;24670;-24
2022/08/02 03:35:41;;;;;;;2.50;2.00;;;;;;;;;;105506;1303;22521;-24
2022/08/02 03:38:11;;;;;;;2.20;1.70;;;;;;;;;;105551;1298;25363;-28
2022/08/02 03:40:40;;;;;;;6.80;2.40;;;;;;;;;;105579;1299;25346;-28
2022/08/02 03:43:10;;;;;;;2.70;2.50;;;;;;;;;;105524;1299;22501;-25
2022/08/02 03:45:39;;;;;;;2.30;2.10;;;;;;;;;;105558;1303;25133;-25
2022/08/02 03:48:07;;;;;;;2.30;2.10;;;;;;;;;;105582;1299;22561;-25
2022/08/02 03:50:36;;;;;;;3.50;2.10;;;;;;;;;;105642;1296;25280;-28
2022/08/02 03:53:05;;;;;;;3.40;2.10;;;;;;;;;;105499;1296;22612;-23
2022/08/02 03:55:34;;;;;;;2.20;1.90;;;;;;;;;;105553;1303;25102;-26
2022/08/02 03:58:03;;;;;;;2.60;2.30;;;;;;;;;;105592;1295;22539;-26
2022/08/02 04:00:32;;;;;;;2.90;2.20;;;;;;;;;;105653;1303;25277;-26
2022/08/02 04:03:01;;;;;;;2.40;2.20;;;;;;;;;;105512;1303;25407;-24
2022/08/02 04:05:29;;;;;;;2.60;2.20;;;;;;;;;;105693;1303;22530;-24
2022/08/02 04:07:58;;;;;;;5.90;2.50;;;;;;;;;;105602;1295;24879;-26
2022/08/02 04:10:27;;;;;;;3.40;2.80;;;;;;;;;;105587;1303;25337;-30
2022/08/02 04:12:56;;;;;;;3.00;2.70;;;;;;;;;;105496;1296;25292;-26
2022/08/02 04:15:25;;;;;;;5.20;3.80;;;;;;;;;;105515;1303;24414;-24
2022/08/02 04:17:56;;;;;;;2.40;1.90;;;;;;;;;;105617;1295;25328;-23
2022/08/02 04:20:27;;;;;;;4.50;1.90;;;;;;;;;;105491;1298;25108;-23
2022/08/02 04:22:57;;;;;;;2.90;2.30;;;;;;;;;;105519;1296;25201;-31
2022/08/02 04:25:26;;;;;;;10.90;2.80;;;;;;;;;;105553;1296;25289;-29
2022/08/02 04:27:55;;;;;;;4.60;2.50;;;;;;;;;;105532;1296;22612;-24
2022/08/02 04:30:24;;;;;;;2.70;2.40;;;;;;;;;;105602;1296;25222;-24
2022/08/02 04:32:53;;;;;;;2.30;2.10;;;;;;;;;;105593;1303;22536;-24
2022/08/02 04:35:22;;;;;;;2.50;2.20;;;;;;;;;;105655;1303;25238;-28
2022/08/02 04:37:50;;;;;;;3.40;2.80;;;;;;;;;;105545;1296;25251;-24
2022/08/02 04:40:19;;;;;;;2.40;1.90;;;;;;;;;;105623;1296;25254;-24
2022/08/02 04:42:48;;;;;;;3.50;2.50;;;;;;;;;;105665;1303;22527;-31
2022/08/02 04:45:17;;;;;;;2.90;2.20;;;;;;;;;;105651;1303;25344;-24
2022/08/02 04:47:46;;;;;;;3.00;1.30;;;;;;;;;;105511;1303;22613;-28
2022/08/02 04:50:14;;;;;;;12.20;2.60;;;;;;;;;;105641;1303;25206;-24
2022/08/02 04:52:43;;;;;;;3.00;2.70;;;;;;;;;;105610;1303;22513;-24
2022/08/02 04:55:12;;;;;;;2.20;1.90;;;;;;;;;;105568;1303;22529;-29
2022/08/02 05:00:13;;;;;;;3.20;2.40;;;;;;;;;;105587;1296;26514;-23
2022/08/02 05:02:42;;;;;;;2.70;2.40;;;;;;;;;;105561;1303;25212;-24
2022/08/02 05:05:11;;;;;;;2.80;2.60;;;;;;;;;;105609;1295;22524;-29
2022/08/02 05:07:40;;;;;;;7.30;2.50;;;;;;;;;;105471;1303;25203;-28
2022/08/02 05:10:09;;;;;;;3.20;2.80;;;;;;;;;;105616;1296;22528;-30
2022/08/02 05:12:38;;;;;;;2.80;2.50;;;;;;;;;;105534;1303;25276;-28
2022/08/02 05:15:07;;;;;;;3.80;2.80;;;;;;;;;;105577;1299;25232;-24
2022/08/02 05:17:36;;;;;;;4.40;3.40;;;;;;;;;;105571;1296;25206;-28
2022/08/02 05:20:05;;;;;;;3.40;2.30;;;;;;;;;;105578;1296;22527;-28
2022/08/02 05:22:34;;;;;;;2.80;2.50;;;;;;;;;;105557;1303;25226;-29
2022/08/02 05:25:03;;;;;;;3.60;2.20;;;;;;;;;;105583;1296;22526;-24
2022/08/02 05:27:32;;;;;;;3.40;3.00;;;;;;;;;;105557;1303;25146;-28
2022/08/02 05:30:01;;;;;;;4.20;3.40;;;;;;;;;;105549;1296;25229;-24
2022/08/02 05:32:30;;;;;;;4.30;3.20;;;;;;;;;;105493;1303;22615;-28
2022/08/02 05:35:00;;;;;;;5.70;3.20;;;;;;;;;;105560;1298;25242;-24
2022/08/02 05:37:30;;;;;;;3.30;2.90;;;;;;;;;;105618;1303;22546;-29
2022/08/02 05:39:59;;;;;;;3.80;3.50;;;;;;;;;;105532;1295;22513;-26
2022/08/02 05:42:31;;;;;;;3.30;3.10;;;;;;;;;;105613;1303;25206;-28
2022/08/02 05:45:00;;;;;;;3.10;2.80;;;;;;;;;;105586;1296;24345;-28
2022/08/02 05:47:29;;;;;;;2.80;2.50;;;;;;;;;;105524;1303;25222;-25
2022/08/02 05:49:58;;;;;;;6.20;5.70;;;;;;;;;;105526;1296;25197;-28
2022/08/02 05:52:31;;;;;;;2.80;2.50;;;;;;;;;;105227;1303;356684;-28
2022/08/02 05:55:00;;;;;;;;;;;;;;;;;;105121;1296;1003877;-28
2022/08/02 05:57:33;;;;;;;4.40;2.60;;;;;;;;;;105532;1303;22503;-30
2022/08/02 06:00:06;;;;;;;2.40;1.80;;;;;;;;;;105520;1299;25198;-24
2022/08/02 06:02:35;;;;;;;;;;;;;;;;;;105461;1304;25194;-27
2022/08/02 06:05:06;;;;;;;3.70;3.40;;;;;;;;;;105629;1302;25134;-29
2022/08/02 06:07:35;;;;;;;2.60;2.40;;;;;;;;;;105438;1299;22530;-26
2022/08/02 06:10:05;;;;;;;13.50;3.90;;;;;;;;;;105459;1299;25202;-28
2022/08/02 06:12:36;;;;;;;5.30;3.10;;;;;;;;;;105575;1303;22533;-24
2022/08/02 06:15:05;;;;;;;4.50;3.90;;;;;;;;;;105555;1299;25191;-29
2022/08/02 06:17:35;;;;;;;4.10;3.70;;;;;;;;;;105526;1303;24701;-24
2022/08/02 06:20:04;;;;;;;4.90;3.60;;;;;;;;;;105544;1296;22530;-29
2022/08/02 06:22:33;;;;;;;4.50;3.80;;;;;;;;;;105639;1303;22978;-25
2022/08/02 06:25:02;;;;;;;3.60;3.40;;;;;;;;;;105558;1296;25455;-29
2022/08/02 06:27:31;;;;;;;4.10;3.80;;;;;;;;;;105581;1303;25223;-26
2022/08/02 06:30:00;;;;;;;4.60;4.20;;;;;;;;;;105546;1296;22509;-29
2022/08/02 06:32:30;;;;;;;4.00;3.70;;;;;;;;;;105540;1303;22554;-25
2022/08/02 06:34:59;;;;;;;6.60;4.30;;;;;;;;;;105496;1299;24719;-29
2022/08/02 06:37:30;;;;;;;4.10;3.60;;;;;;;;;;105532;1303;22536;-24
2022/08/02 06:40:02;;;;;;;3.10;2.90;;;;;;;;;;105601;1299;25302;-26
2022/08/02 06:42:36;;;;;;;3.70;3.40;;;;;;;;;;104865;1302;1003712;-27
2022/08/02 06:45:06;;;;;;;4.20;3.80;;;;;;;;;;105593;1299;25407;-29
2022/08/02 06:47:34;;;;;;;4.20;3.90;;;;;;;;;;105584;1298;22533;-25
2022/08/02 06:50:03;;;;;;;3.60;2.70;;;;;;;;;;105561;1302;22559;-24
2022/08/02 06:52:34;;;;;;;6.80;4.50;;;;;;;;;;105639;1303;25273;-25
2022/08/02 06:55:03;;;;;;;2.80;2.60;;;;;;;;;;105578;1296;22524;-26
2022/08/02 06:57:32;;;;;;;4.60;4.20;;;;;;;;;;105567;1303;25143;-26
2022/08/02 07:00:03;;;;;;;3.20;3.00;;;;;;;;;;105486;1302;24250;-25
2022/08/02 07:02:33;;;;;;;4.30;3.80;;;;;;;;;;105548;1301;24696;-25
2022/08/02 07:05:02;;;;;;;3.20;2.90;;;;;;;;;;105554;1299;25378;-30
2022/08/02 07:07:31;;;;;;;3.60;3.30;;;;;;;;;;105599;1303;22520;-30
2022/08/02 07:10:00;;;;;;;3.70;3.40;;;;;;;;;;105626;1299;24541;-26
2022/08/02 07:12:29;;;;;;;2.30;2.10;;;;;;;;;;105551;1303;25203;-26
2022/08/02 07:14:59;;;;;;;4.40;2.60;;;;;;;;;;104858;1303;1003224;-26
2022/08/02 07:17:28;;;;;;;3.80;3.40;;;;;;;;;;105674;1303;25235;-25
2022/08/02 07:19:58;;;;;;;2.40;2.10;;;;;;;;;;105608;1296;25178;-31
2022/08/02 07:22:27;;;;;;;6.20;2.50;;;;;;;;;;105607;1303;25236;-31
2022/08/02 07:24:56;;;;;;;3.60;2.00;;;;;;;;;;105547;1296;22524;-31
2022/08/02 07:27:25;;;;;;;6.90;2.30;;;;;;;;;;105539;1303;25410;-29
2022/08/02 07:29:54;;;;;;;2.40;2.20;;;;;;;;;;105534;1302;22511;-27
2022/08/02 07:32:24;;;;;;;2.10;1.90;;;;;;;;;;105600;1303;25203;-30
2022/08/02 07:34:53;;;;;;;3.50;2.10;;;;;;;;;;105649;1303;24410;-30
2022/08/02 07:37:22;;;;;;;3.70;2.20;;;;;;;;;;105548;1303;25391;-25
2022/08/02 07:39:51;;;;;;;2.10;1.90;;;;;;;;;;105530;1303;22497;-29
2022/08/02 07:42:20;;;;;;;2.50;1.40;;;;;;;;;;105679;1303;25237;-25
2022/08/02 07:44:49;;;;;;;3.30;2.10;;;;;;;;;;105615;1296;24779;-25
2022/08/02 07:47:18;;;;;;;2.90;2.00;;;;;;;;;;105572;1304;25197;-29
2022/08/02 07:49:55;;;;;;;3.50;2.20;;;;;;;;;;105576;1303;24705;-28
2022/08/02 07:52:24;;;;;;;2.10;1.80;;;;;;;;;;105578;1304;25197;-28
2022/08/02 07:54:53;;;;;;;3.20;2.60;;;;;;;;;;105508;1296;24702;-28
2022/08/02 07:57:22;;;;;;;2.00;1.80;;;;;;;;;;105523;1303;25203;-24
2022/08/02 07:59:51;;;;;;;5.70;2.70;;;;;;;;;;105531;1302;25347;-25
2022/08/02 08:02:20;;;;;;;2.50;2.30;;;;;;;;;;105547;1303;22594;-25
2022/08/02 08:04:57;;;;;;;4.10;2.60;;;;;;;;;;105528;1302;22531;-27
2022/08/02 08:07:34;;;;;;;1.80;1.50;;;;;;;;;;105608;1298;22523;-27
2022/08/02 08:10:12;;;;;;;4.30;2.30;;;;;;;;;;105602;1302;25356;-24
2022/08/02 08:12:40;;;;;;;2.60;1.80;;;;;;;;;;105635;1303;25178;-26
2022/08/02 08:15:09;;;;;;;1.90;1.70;;;;;;;;;;105565;1296;25277;-29
2022/08/02 08:17:38;;;;;;;1.80;1.50;;;;;;;;;;105585;1303;25235;-25
2022/08/02 08:20:07;;;;;;;2.10;1.70;;;;;;;;;;105571;1301;25232;-24
2022/08/02 08:22:36;;;;;;;2.20;2.00;;;;;;;;;;105518;1303;22626;-29
2022/08/02 08:25:05;;;;;;;1.70;1.50;;;;;;;;;;105511;1302;22510;-28
2022/08/02 08:27:46;;;;;;;2.10;1.90;;;;;;;;;;105484;1299;22616;-29
2022/08/02 08:30:15;;;;;;;4.30;0.90;;;;;;;;;;105573;1302;22524;-29
2022/08/02 08:32:44;;;;;;;2.20;1.30;;;;;;;;;;105572;1303;25305;-25
2022/08/02 08:35:13;;;;;;;1.80;1.40;;;;;;;;;;105578;1303;25350;-26
2022/08/02 08:37:41;;;;;;;9.30;1.30;;;;;;;;;;105638;1303;25347;-26
2022/08/02 08:40:19;;;;;;;10.90;2.00;;;;;;;;;;105562;1299;25343;-26
2022/08/02 08:42:48;;;;;;;1.60;1.50;;;;;;;;;;105623;1303;25312;-30
2022/08/02 08:45:16;;;;;;;1.50;1.30;;;;;;;;;;105553;1303;25303;-28
2022/08/02 08:47:47;;;;;;;4.20;1.00;;;;;;;;;;105508;1303;25196;-28
2022/08/02 08:50:17;;;;;;;2.30;1.30;;;;;;;;;;105540;1296;25363;-29
2022/08/02 08:52:47;;;;;;;4.30;1.80;;;;;;;;;;105411;1303;25279;-29
2022/08/02 08:55:16;;;;;;;4.20;1.60;;;;;;;;;;105566;1296;22517;-25
2022/08/02 08:57:45;;;;;;;3.50;1.90;;;;;;;;;;105539;1303;24737;-28
2022/08/02 09:00:15;;;;;;;3.00;1.60;;;;;;;;;;105443;1303;24750;-28
2022/08/02 09:02:45;;;;;;;3.00;1.20;;;;;;;;;;105532;1300;22556;-28
2022/08/02 09:05:14;;;;;;;3.00;1.70;;;;;;;;;;105508;1303;25341;-25
2022/08/02 09:07:46;;;;;;;1.70;1.40;;;;;;;;;;105464;1303;22840;-25
2022/08/02 09:10:19;;;;;;;5.60;1.80;;;;;;;;;;105520;1296;22587;-28
2022/08/02 09:13:01;;;;;;;2.90;2.30;;;;;;;;;;105539;1299;25293;-28
2022/08/02 09:15:30;;;;;;;1.60;1.40;;;;;;;;;;105559;1302;22540;-26
2022/08/02 09:18:07;;;;;;;1.90;1.80;;;;;;;;;;105569;1299;24783;-26
2022/08/02 09:20:40;;;;;;;2.50;1.80;;;;;;;;;;105569;1303;22529;-28
2022/08/02 09:23:09;;;;;;;1.50;1.10;;;;;;;;;;105455;1299;25175;-25
2022/08/02 09:25:38;;;;;;;4.90;2.70;;;;;;;;;;105639;1302;22520;-25
2022/08/02 09:28:06;;;;;;;11.90;1.90;;;;;;;;;;105592;1299;22514;-24
2022/08/02 09:30:41;;;;;;;2.10;1.40;;;;;;;;;;105601;1303;25191;-30
2022/08/02 09:33:10;;;;;;;5.60;1.60;;;;;;;;;;105526;1296;22502;-28
2022/08/02 09:35:39;;;;;;;3.20;1.60;;;;;;;;;;105487;1303;22517;-24
2022/08/02 09:38:09;;;;;;;3.10;1.60;;;;;;;;;;105506;1303;22556;-24
2022/08/02 09:40:38;;;;;;;1.90;1.60;;;;;;;;;;105494;1299;25226;-28
2022/08/02 09:43:07;;;;;;;2.50;2.20;;;;;;;;;;105592;1299;25226;-24
2022/08/02 09:45:36;;;;;;;2.20;1.30;;;;;;;;;;105422;1304;24874;-27
2022/08/02 09:48:06;;;;;;;2.40;2.00;;;;;;;;;;105560;1299;25194;-24
2022/08/02 09:50:37;;;;;;;1.90;1.60;;;;;;;;;;105529;1303;24377;-27
2022/08/02 09:53:09;;;;;;;13.00;1.60;;;;;;;;;;105557;1302;25241;-25
2022/08/02 09:55:39;;;;;;;20.90;1.30;;;;;;;;;;105549;1301;25290;-28
2022/08/02 09:58:11;;;;;;;2.80;1.80;;;;;;;;;;105549;1296;22510;-25
2022/08/02 10:00:50;;;;;;;2.70;1.40;;;;;;;;;;105598;1296;25353;-31
2022/08/02 10:03:19;;;;;;;2.40;1.90;;;;;;;;;;105570;1296;25235;-25
2022/08/02 10:05:49;;;;;;;2.80;2.30;;;;;;;;;;105559;1303;22514;-24
2022/08/02 10:08:18;;;;;;;2.50;2.30;;;;;;;;;;105497;1299;25229;-25
2022/08/02 10:10:47;;;;;;;2.50;2.10;;;;;;;;;;105540;1303;25235;-26
2022/08/02 10:13:16;;;;;;;2.30;1.70;;;;;;;;;;105595;1296;22990;-30
2022/08/02 10:15:45;;;;;;;2.00;1.80;;;;;;;;;;105585;1303;25225;-30
2022/08/02 10:18:13;;;;;;;2.20;2.10;;;;;;;;;;105574;1303;22509;-26
2022/08/02 10:20:43;;;;;;;1.20;1.10;;;;;;;;;;105656;1303;24731;-29
2022/08/02 10:23:12;;;;;;;4.80;2.10;;;;;;;;;;105528;1303;22522;-26
2022/08/02 10:25:41;;;;;;;3.60;1.90;;;;;;;;;;105583;1303;25212;-26
2022/08/02 10:28:10;;;;;;;5.40;1.60;;;;;;;;;;105636;1299;25303;-26
2022/08/02 10:30:40;;;;;;;3.00;2.30;;;;;;;;;;105580;1303;22632;-30
2022/08/02 10:33:09;;;;;;;1.80;1.70;;;;;;;;;;105628;1298;25386;-25
2022/08/02 10:35:38;;;;;;;6.10;2.50;;;;;;;;;;105549;1303;25271;-30
2022/08/02 10:38:08;;;;;;;1.70;1.50;;;;;;;;;;105520;1296;22600;-25
2022/08/02 10:40:40;;;;;;;1.70;1.60;;;;;;;;;;105614;1290;22529;-28
2022/08/02 10:43:09;;;;;;;1.80;1.60;;;;;;;;;;105513;1296;25092;-28
2022/08/02 10:45:38;;;;;;;2.60;2.40;;;;;;;;;;105551;1303;22810;-25
2022/08/02 10:48:08;;;;;;;4.20;1.40;;;;;;;;;;105600;1299;24829;-24
2022/08/02 10:50:40;;;;;;;1.90;1.40;;;;;;;;;;105530;1303;25209;-27
2022/08/02 10:53:12;;;;;;;5.80;1.10;;;;;;;;;;105529;1296;22523;-29
2022/08/02 10:55:43;;;;;;;1.50;1.40;;;;;;;;;;105506;1296;24820;-29
2022/08/02 10:58:16;;;;;;;16.50;7.10;;;;;;;;;;105492;1303;25196;-25
2022/08/02 11:00:45;;;;;;;2.10;1.30;;;;;;;;;;105568;1296;25241;-24
2022/08/02 11:03:32;;;;;;;1.40;1.30;;;;;;;;;;105595;1303;25235;-24
2022/08/02 11:06:03;;;;;;;1.10;1.00;;;;;;;;;;105630;1299;22530;-24
2022/08/02 11:08:32;;;;;;;2.70;1.20;;;;;;;;;;104888;1299;1003167;-27
2022/08/02 11:11:17;;;;;;;1.50;1.40;;;;;;;;;;105550;1303;25388;-30
2022/08/02 11:13:49;;;;;;;8.10;1.30;;;;;;;;;;105481;1299;25280;-28
2022/08/02 11:16:18;;;;;;;2.30;1.90;;;;;;;;;;105518;1296;25211;-30
2022/08/02 11:19:04;;;;;;;1.80;1.20;;;;;;;;;;105639;1295;22536;-28
2022/08/02 11:21:34;;;;;;;1.10;1.00;;;;;;;;;;105631;1303;24827;-25
2022/08/02 11:24:06;;;;;;;1.50;1.20;;;;;;;;;;105570;1299;22521;-28
2022/08/02 11:26:44;;;;;;;0.80;0.80;;;;;;;;;;105570;1303;22529;-26
2022/08/02 11:29:21;;;;;;;1.50;1.20;;;;;;;;;;105221;1303;25196;-24
2022/08/02 11:31:50;;;;;;;1.20;0.90;;;;;;;;;;105523;1303;24733;-29
2022/08/02 11:34:19;;;;;;;2.60;1.10;;;;;;;;;;105544;1299;25200;-25
2022/08/02 11:36:48;;;;;;;1.00;0.80;;;;;;;;;;105652;1303;22503;-30
2022/08/02 11:39:18;;;;;;;1.80;1.00;;;;;;;;;;105600;1299;22523;-30
2022/08/02 11:41:49;;;;;;;1.30;1.00;;;;;;;;;;105610;1299;25226;-30
2022/08/02 11:44:18;;;;;;;1.10;0.80;;;;;;;;;;105502;1296;24457;-26
2022/08/02 11:46:56;;;;;;;6.20;1.10;;;;;;;;;;105583;1296;25200;-28
2022/08/02 11:49:34;;;;;;;1.30;1.20;;;;;;;;;;105609;1303;25328;-29
2022/08/02 11:52:12;;;;;;;1.00;1.00;;;;;;;;;;105550;1303;25382;-24
2022/08/02 11:54:49;;;;;;;1.00;0.90;;;;;;;;;;105565;1303;25341;-25
2022/08/02 11:57:19;;;;;;;1.30;0.90;;;;;;;;;;105602;1296;25156;-25
2022/08/02 11:59:49;;;;;;;3.10;0.90;;;;;;;;;;105536;1296;25314;-29
2022/08/02 12:02:18;;;;;;;2.60;0.70;;;;;;;;;;105572;1289;25202;-25
2022/08/02 12:04:51;;;;;;;1.30;1.10;;;;;;;;;;105553;1299;22513;-24
2022/08/02 12:07:19;;;;;;;;;;;;;;;;;;105576;1296;22509;-28
2022/08/02 12:09:48;;;;;;;4.80;0.90;;;;;;;;;;105593;1296;24816;-25
2022/08/02 12:12:17;;;;;;;1.10;0.70;;;;;;;;;;105638;1303;25234;-24
2022/08/02 12:14:46;;;;;;;1.20;1.10;;;;;;;;;;105610;1296;24849;-25
2022/08/02 12:19:53;;;;;;;0.50;0.40;;;;;;;;;;105456;1303;25161;-26
2022/08/02 12:22:31;;;;;;;1.00;0.90;;;;;;;;;;105479;1303;25229;-26
2022/08/02 12:25:00;;;;;;;1.00;0.60;;;;;;;;;;105583;1296;22616;-30
2022/08/02 12:27:30;;;;;;;1.00;0.80;;;;;;;;;;105585;1303;25197;-26
2022/08/02 12:30:00;;;;;;;1.10;0.80;;;;;;;;;;105475;1303;24686;-30
2022/08/02 12:32:29;;;;;;;1.00;0.60;;;;;;;;;;105439;1299;22501;-26
2022/08/02 12:35:08;;;;;;;0.80;0.80;;;;;;;;;;105520;1303;25293;-26
2022/08/02 12:37:46;;;;;;;1.30;0.90;;;;;;;;;;105603;1303;25226;-29
2022/08/02 12:40:25;;;;;;;1.70;0.70;;;;;;;;;;105571;1298;22526;-29
2022/08/02 12:42:55;;;;;;;0.50;0.40;;;;;;;;;;105549;1303;22522;-29
2022/08/02 12:45:24;;;;;;;1.90;0.60;;;;;;;;;;105575;1296;22591;-25
2022/08/02 12:47:54;;;;;;;2.90;0.70;;;;;;;;;;105537;1303;22551;-25
2022/08/02 12:50:25;;;;;;;2.30;0.80;;;;;;;;;;105494;1303;24650;-29
2022/08/02 12:52:57;;;;;;;1.00;0.80;;;;;;;;;;105558;1296;24650;-25
2022/08/02 12:55:26;;;;;;;;;;;;;;;;;;105537;1296;25228;-25
2022/08/02 12:57:58;;;;;;;0.70;0.70;;;;;;;;;;105609;1299;25232;-28
2022/08/02 13:00:35;;;;;;;1.80;0.60;;;;;;;;;;105497;1303;25211;-24
2022/08/02 13:03:04;;;;;;;2.40;0.90;;;;;;;;;;105557;1299;22509;-28
2022/08/02 13:05:34;;;;;;;0.70;0.60;;;;;;;;;;105562;1303;22513;-23
2022/08/02 13:08:03;;;;;;;0.50;0.50;;;;;;;;;;105616;1299;22512;-24
2022/08/02 13:10:32;;;;;;;1.10;0.70;;;;;;;;;;105526;1303;25180;-26
2022/08/02 13:13:01;;;;;;;0.80;0.60;;;;;;;;;;105593;1303;25349;-24
2022/08/02 13:15:31;;;;;;;4.10;0.70;;;;;;;;;;105554;1303;25247;-29
2022/08/02 13:18:00;;;;;;;0.90;0.70;;;;;;;;;;105522;1299;25341;-25
2022/08/02 13:20:29;;;;;;;0.70;0.60;;;;;;;;;;105660;1303;25350;-30
2022/08/02 13:22:58;;;;;;;3.00;1.10;;;;;;;;;;105626;1299;22510;-28
2022/08/02 13:25:26;;;;;;;1.10;0.80;;;;;;;;;;105569;1303;25280;-26
2022/08/02 13:27:55;;;;;;;1.30;0.80;;;;;;;;;;105552;1299;25209;-24
2022/08/02 13:30:24;;;;;;;2.40;0.70;;;;;;;;;;105557;1303;22534;-28
2022/08/02 13:32:53;;;;;;;0.50;0.50;;;;;;;;;;105549;1303;22537;-30
2022/08/02 13:35:22;;;;;;;0.50;0.50;;;;;;;;;;105547;1303;25385;-28
2022/08/02 13:37:50;;;;;;;0.90;0.80;;;;;;;;;;105570;1303;25513;-27
2022/08/02 13:40:20;;;;;;;0.60;0.60;;;;;;;;;;105547;1296;25270;-28
2022/08/02 13:42:49;;;;;;;1.50;1.30;;;;;;;;;;105604;1303;25327;-28
2022/08/02 13:45:18;;;;;;;2.20;1.20;;;;;;;;;;105599;1296;25128;-26
2022/08/02 13:47:48;;;;;;;0.50;0.50;;;;;;;;;;105605;1296;25343;-28
2022/08/02 13:50:17;;;;;;;2.00;0.40;;;;;;;;;;105508;1303;25257;-28
2022/08/02 13:52:45;;;;;;;0.60;0.40;;;;;;;;;;105382;1303;298127;-28
2022/08/02 13:55:14;;;;;;;1.80;0.50;;;;;;;;;;105529;1303;24839;-28
2022/08/02 13:57:43;;;;;;;0.40;0.40;;;;;;;;;;105561;1303;25280;-28
2022/08/02 14:00:12;;;;;;;0.70;0.60;;;;;;;;;;105645;1299;22521;-28
2022/08/02 14:02:41;;;;;;;1.00;0.60;;;;;;;;;;105590;1282;25276;-25
2022/08/02 14:05:10;;;;;;;1.00;0.50;;;;;;;;;;105569;1296;22609;-25
2022/08/02 14:07:39;;;;;;;0.60;0.60;;;;;;;;;;105626;1303;25360;-24
2022/08/02 14:10:08;;;;;;;0.50;0.50;;;;;;;;;;105542;1296;25300;-26
2022/08/02 14:12:36;;;;;;;3.00;0.30;;;;;;;;;;105568;1303;22551;-30
2022/08/02 14:15:14;;;;;;;1.80;0.60;;;;;;;;;;105522;1303;25337;-30
2022/08/02 14:17:42;;;;;;;0.60;0.50;;;;;;;;;;105549;1303;25279;-26
2022/08/02 14:20:11;;;;;;;1.40;1.30;;;;;;;;;;105576;1296;25147;-26
2022/08/02 14:22:40;;;;;;;3.00;0.70;;;;;;;;;;105642;1303;22567;-28
2022/08/02 14:25:09;;;;;;;0.80;0.70;;;;;;;;;;105610;1296;22520;-25
2022/08/02 14:27:38;;;;;;;0.90;0.50;;;;;;;;;;105600;1303;25346;-28
2022/08/02 14:30:07;;;;;;;0.50;0.50;;;;;;;;;;105580;1296;25076;-23
2022/08/02 14:32:36;;;;;;;2.20;0.60;;;;;;;;;;105561;1303;25172;-24
2022/08/02 14:35:05;;;;;;;0.90;0.50;;;;;;;;;;105594;1302;25343;-27
2022/08/02 14:37:34;;;;;;;1.00;0.60;;;;;;;;;;105591;1303;22682;-25
2022/08/02 14:40:03;;;;;;;0.60;0.50;;;;;;;;;;105517;1296;22525;-25
2022/08/02 14:42:40;;;;;;;0.50;0.50;;;;;;;;;;105537;1303;25353;-28
2022/08/02 14:45:09;;;;;;;0.70;0.60;;;;;;;;;;105582;1299;25329;-25
2022/08/02 14:47:38;;;;;;;5.80;1.30;;;;;;;;;;105641;1303;24488;-24
2022/08/02 14:50:07;;;;;;;1.30;0.90;;;;;;;;;;105613;1295;25327;-28
2022/08/02 14:52:36;;;;;;;0.80;0.70;;;;;;;;;;105548;1289;25361;-25
2022/08/02 14:55:05;;;;;;;1.20;0.80;;;;;;;;;;105644;1296;25280;-28